Norwegian Dawn — C6FT7 — position and weather

sailwx.info

Track history (hours):
 
Tides and Currents Weather Stations Pressure Air Temp Water Temp Dewpoint Dewpoint Depression Visibility Wind Speed Wind Dir Waves Ship Positions

Norwegian Dawn

Operator: Norwegian Cruise Line

Last reported at 2020-Aug-10 00:30 UTC. Time now 2020-Aug-10 02:30 UTC.
Position N 36°07' W 008°10'.

Type: Ship. MMSI: 311307000.

Date/timePositionNaut miles runAvg speedWind from/ knotsBaromVisibWave heightAir tempDewpointWater temp
2020-Aug-10 00:30N 36°07' W 008°10'1616.3
2020-Aug-09 23:30N 36°09' W 008°30'5816.4
2020-Aug-09 20:00N 36°21' W 009°40'2617.0
2020-Aug-09 18:30N 36°32' W 010°08'3417.1
2020-Aug-09 16:30N 36°48' W 010°46'2516.5
2020-Aug-09 15:01N 36°59' W 011°13'4317.0
2020-Aug-09 12:29N 37°18' W 012°01'3317.0
2020-Aug-09 10:33N 37°33' W 012°39'1816.9
2020-Aug-09 09:29N 37°40' W 012°59'3316.6
2020-Aug-09 07:31N 37°54' W 013°37'816.8
2020-Aug-09 07:00N 37°57' W 013°47'2516.9
2020-Aug-09 05:30N 38°04' W 014°18'1717.2
2020-Aug-09 04:30N 38°10' W 014°39'  
2020-Jul-31 18:01N 25°49' W 079°57'12 4.7
2020-Jul-31 15:28N 25°46' W 080°10'0 0.0
2020-Jul-31 11:58N 25°46' W 080°10'0 0.0
2020-Jul-31 09:58N 25°46' W 080°10'0 0.0
2020-Jul-31 06:28N 25°46' W 080°10'0 0.0
2020-Jul-31 05:58N 25°46' W 080°10'0 0.0
2020-Jul-31 04:58N 25°46' W 080°10'0 0.0
2020-Jul-31 03:58N 25°46' W 080°10'0 0.0
2020-Jul-31 00:58N 25°46' W 080°10'  
Track history (hours):
 
Tides and Currents Weather Stations Pressure Air Temp Water Temp Dewpoint Dewpoint Depression Visibility Wind Speed Wind Dir Waves Ship Positions

Norwegian Dawn

Operator: Norwegian Cruise Line

Last reported at 2020-Aug-10 00:30 UTC. Time now 2020-Aug-10 02:30 UTC.
Position N 36°07' W 008°10'.

Type: Ship. MMSI: 311307000.

Date/timePositionNaut miles runAvg speedWind from/ knotsBaromVisibWave heightAir tempDewpointWater temp
2020-Aug-10 00:30N 36°07' W 008°10'1616.3
2020-Aug-09 23:30N 36°09' W 008°30'5816.4
2020-Aug-09 20:00N 36°21' W 009°40'2617.0
2020-Aug-09 18:30N 36°32' W 010°08'3417.1
2020-Aug-09 16:30N 36°48' W 010°46'2516.5
2020-Aug-09 15:01N 36°59' W 011°13'4317.0
2020-Aug-09 12:29N 37°18' W 012°01'3317.0
2020-Aug-09 10:33N 37°33' W 012°39'1816.9
2020-Aug-09 09:29N 37°40' W 012°59'3316.6
2020-Aug-09 07:31N 37°54' W 013°37'816.8
2020-Aug-09 07:00N 37°57' W 013°47'2516.9
2020-Aug-09 05:30N 38°04' W 014°18'1717.2
2020-Aug-09 04:30N 38°10' W 014°39'  
2020-Jul-31 18:01N 25°49' W 079°57'12 4.7
2020-Jul-31 15:28N 25°46' W 080°10'0 0.0
2020-Jul-31 11:58N 25°46' W 080°10'0 0.0
2020-Jul-31 09:58N 25°46' W 080°10'0 0.0
2020-Jul-31 06:28N 25°46' W 080°10'0 0.0
2020-Jul-31 05:58N 25°46' W 080°10'0 0.0
2020-Jul-31 04:58N 25°46' W 080°10'0 0.0
2020-Jul-31 03:58N 25°46' W 080°10'0 0.0
2020-Jul-31 00:58N 25°46' W 080°10'  

Dump ship's entire track history